Time,TemperatureF,DewpointF,PressureIn,WindDirection,WindDirectionDegrees,WindSpeedMPH,WindSpeedGustMPH,Humidity,HourlyPrecipIn,Conditions,Clouds,dailyrainin,SoftwareType,DateUTC
2013-08-01 00:03:00,65.4,61.7,30.06,SW,225,0.0,0.0,88,0.00,,,0.00,WSDL version 420,2013-08-01 04:03:00,
2013-08-01 00:04:00,65.4,61.7,30.06,SW,225,0.0,0.0,88,0.00,,,0.00,WSDL version 420,2013-08-01 04:04:00,
2013-08-01 00:07:00,65.5,61.8,30.06,SW,225,0.0,0.0,88,0.00,,,0.00,WSDL version 420,2013-08-01 04:07:00,
2013-08-01 00:09:00,65.5,61.9,30.06,SW,225,0.0,0.0,89,0.00,,,0.00,WSDL version 420,2013-08-01 04:09:00,
2013-08-01 00:10:00,65.6,61.9,30.06,SW,225,0.0,0.0,88,0.00,,,0.00,WSDL version 420,2013-08-01 04:10:00,
2013-08-01 00:16:00,65.3,61.7,30.06,SW,225,0.0,0.0,88,-99.99,,,-99.99,WSDL version 420,2013-08-01 04:16:00,
2013-08-01 00:22:00,65.4,62.1,30.06,SW,225,0.0,0.0,89,0.00,,,0.00,WSDL version 420,2013-08-01 04:22:00,
2013-08-01 00:28:00,65.5,61.9,30.06,SW,225,0.0,0.0,88,0.00,,,0.00,WSDL version 420,2013-08-01 04:28:00,
2013-08-01 00:35:00,65.2,61.6,30.06,SW,225,0.0,0.0,88,0.00,,,0.00,WSDL version 420,2013-08-01 04:35:00,
2013-08-01 00:41:00,65.2,61.8,30.06,SW,225,0.0,0.0,88,0.00,,,0.00,WSDL version 420,2013-08-01 04:41:00,
2013-08-01 00:47:00,64.9,61.6,30.06,SW,225,0.0,0.0,89,0.00,,,0.00,WSDL version 420,2013-08-01 04:47:00,
2013-08-01 00:53:00,64.9,61.5,30.03,SW,225,0.0,0.0,89,0.00,,,0.00,WSDL version 420,2013-08-01 04:53:00,
2013-08-01 00:59:00,64.6,61.3,30.03,SW,225,0.0,0.0,89,0.00,,,0.00,WSDL version 420,2013-08-01 04:59:00,
2013-08-01 01:05:00,64.7,61.4,30.03,SW,225,0.0,0.0,89,0.00,,,0.00,WSDL version 420,2013-08-01 05:05:00,
2013-08-01 01:11:00,64.6,61.2,30.03,SW,225,0.0,0.0,89,0.00,,,0.00,WSDL version 420,2013-08-01 05:11:00,
2013-08-01 01:17:00,64.6,61.2,30.03,SW,225,0.0,0.0,89,0.00,,,0.00,WSDL version 420,2013-08-01 05:17:00,
2013-08-01 01:23:00,64.5,61.2,30.03,SW,225,0.0,0.0,90,0.00,,,0.00,WSDL version 420,2013-08-01 05:23:00,
2013-08-01 01:29:00,64.6,61.3,30.03,SW,225,0.0,0.0,89,0.00,,,0.00,WSDL version 420,2013-08-01 05:29:00,
2013-08-01 01:35:00,64.8,61.5,30.03,SW,225,0.0,0.0,89,0.00,,,0.00,WSDL version 420,2013-08-01 05:35:00,
2013-08-01 01:41:00,64.5,61.1,30.03,SW,225,0.0,0.0,89,0.00,,,0.00,WSDL version 420,2013-08-01 05:41:00,
2013-08-01 01:48:00,64.4,61.1,30.03,SW,225,0.0,0.0,89,0.00,,,0.00,WSDL version 420,2013-08-01 05:48:00,
2013-08-01 01:54:00,64.5,61.2,30.03,SW,225,0.0,0.0,89,0.00,,,0.00,WSDL version 420,2013-08-01 05:54:00,
2013-08-01 02:00:00,64.6,61.2,30.03,SW,225,0.0,0.0,89,0.00,,,0.00,WSDL version 420,2013-08-01 06:00:00,
2013-08-01 02:06:00,64.5,61.1,30.00,SW,225,0.0,0.0,89,0.00,,,0.00,WSDL version 420,2013-08-01 06:06:00,
2013-08-01 02:12:00,64.4,61.1,30.00,SW,225,0.0,0.0,89,0.00,,,0.00,WSDL version 420,2013-08-01 06:12:00,
2013-08-01 02:18:00,64.5,61.1,30.00,SW,225,0.0,0.0,89,0.00,,,0.00,WSDL version 420,2013-08-01 06:18:00,
2013-08-01 02:24:00,64.3,60.9,30.00,SW,225,0.0,0.0,89,0.00,,,0.00,WSDL version 420,2013-08-01 06:24:00,
2013-08-01 02:30:00,64.2,60.9,30.00,SW,225,0.0,0.0,89,0.00,,,0.00,WSDL version 420,2013-08-01 06:30:00,
2013-08-01 02:36:00,64.0,60.7,30.00,SW,225,0.0,0.0,89,0.00,,,0.00,WSDL version 420,2013-08-01 06:36:00,
2013-08-01 02:42:00,63.8,60.4,30.00,SW,225,0.0,0.0,89,0.00,,,0.00,WSDL version 420,2013-08-01 06:42:00,
2013-08-01 02:49:00,64.1,60.7,30.00,SW,225,0.0,0.0,89,0.00,,,0.00,WSDL version 420,2013-08-01 06:49:00,
2013-08-01 02:55:00,64.2,60.8,30.00,SW,225,0.0,0.0,89,0.00,,,0.00,WSDL version 420,2013-08-01 06:55:00,
2013-08-01 03:01:00,64.2,60.9,30.00,SW,225,0.0,0.0,89,0.00,,,0.00,WSDL version 420,2013-08-01 07:01:00,
2013-08-01 03:07:00,64.0,60.7,30.00,SW,225,0.0,0.0,89,0.00,,,0.00,WSDL version 420,2013-08-01 07:07:00,
2013-08-01 03:13:00,64.2,61.1,30.00,SW,225,0.0,0.0,90,0.00,,,0.00,WSDL version 420,2013-08-01 07:13:00,
2013-08-01 03:19:00,64.1,61.1,30.00,SW,225,0.0,0.0,90,0.00,,,0.00,WSDL version 420,2013-08-01 07:19:00,
2013-08-01 03:25:00,64.0,61.0,30.00,SW,225,0.0,0.0,90,0.00,,,0.00,WSDL version 420,2013-08-01 07:25:00,
2013-08-01 03:32:00,63.9,60.9,30.00,SW,225,0.0,0.0,90,0.00,,,0.00,WSDL version 420,2013-08-01 07:32:00,
2013-08-01 03:38:00,63.8,60.8,29.97,SW,225,0.0,0.0,90,0.00,,,0.00,WSDL version 420,2013-08-01 07:38:00,
2013-08-01 03:44:00,64.0,61.0,29.97,SW,225,0.0,0.0,90,0.00,,,0.00,WSDL version 420,2013-08-01 07:44:00,
2013-08-01 03:47:00,63.9,60.9,29.97,SW,225,0.0,0.0,90,0.00,,,0.00,WSDL version 420,2013-08-01 07:47:00,
2013-08-01 03:53:00,63.6,60.6,29.97,SW,225,0.0,0.0,90,0.00,,,0.00,WSDL version 420,2013-08-01 07:53:00,
2013-08-01 03:59:00,63.5,60.5,29.97,SW,225,0.0,0.0,90,0.00,,,0.00,WSDL version 420,2013-08-01 07:59:00,
2013-08-01 04:07:00,63.7,60.7,29.97,SW,225,0.0,0.0,90,0.00,,,0.00,WSDL version 420,2013-08-01 08:07:00,
2013-08-01 04:15:00,63.9,60.9,29.97,SW,225,0.0,0.0,90,0.00,,,0.00,WSDL version 420,2013-08-01 08:15:00,
2013-08-01 04:22:00,63.7,60.7,29.97,SW,225,0.0,0.0,90,0.00,,,0.00,WSDL version 420,2013-08-01 08:22:00,
2013-08-01 04:28:00,63.7,60.8,29.97,SW,225,0.0,0.0,90,0.00,,,0.00,WSDL version 420,2013-08-01 08:28:00,
2013-08-01 04:35:00,63.7,60.7,29.97,SW,225,0.0,0.0,90,0.00,,,0.00,WSDL version 420,2013-08-01 08:35:00,
2013-08-01 04:41:00,63.7,60.7,29.97,SW,225,0.0,0.0,90,0.00,,,0.00,WSDL version 420,2013-08-01 08:41:00,
2013-08-01 04:46:00,63.7,60.7,29.97,SW,225,0.0,0.0,90,0.00,,,0.00,WSDL version 420,2013-08-01 08:46:00,
2013-08-01 04:53:00,63.6,60.7,29.97,SW,225,0.0,0.0,90,0.00,,,0.00,WSDL version 420,2013-08-01 08:53:00,
2013-08-01 04:58:00,63.7,60.7,29.97,SW,225,0.0,0.0,90,0.00,,,0.00,WSDL version 420,2013-08-01 08:58:00,
2013-08-01 05:05:00,63.6,60.7,29.97,SW,225,0.0,0.0,91,0.00,,,0.00,WSDL version 420,2013-08-01 09:05:00,
2013-08-01 05:15:00,63.7,61.0,29.97,SW,225,0.0,0.0,91,0.00,,,0.00,WSDL version 420,2013-08-01 09:15:00,
2013-08-01 05:23:00,63.6,60.9,29.97,SW,225,0.0,0.0,91,0.00,,,0.00,WSDL version 420,2013-08-01 09:23:00,
2013-08-01 05:35:00,63.7,61.0,29.97,SW,225,0.0,0.0,91,0.00,,,0.00,WSDL version 420,2013-08-01 09:35:00,
2013-08-01 05:41:00,63.8,61.3,29.97,SW,225,0.0,0.0,92,0.00,,,0.00,WSDL version 420,2013-08-01 09:41:00,
2013-08-01 05:48:00,63.8,61.4,29.97,SW,225,0.0,0.0,92,0.00,,,0.00,WSDL version 420,2013-08-01 09:48:00,
2013-08-01 05:57:00,63.9,61.6,29.97,SW,225,0.0,0.0,92,0.00,,,0.00,WSDL version 420,2013-08-01 09:57:00,
2013-08-01 06:03:00,63.9,61.6,29.97,SW,225,0.0,0.0,92,0.00,,,0.00,WSDL version 420,2013-08-01 10:03:00,
2013-08-01 06:09:00,63.5,61.2,29.97,SW,225,0.0,0.0,92,0.00,,,0.00,WSDL version 420,2013-08-01 10:09:00,
2013-08-01 06:20:00,63.9,61.6,29.97,North,-999,-999.0,-999.0,92,0.00,,,0.00,WSDL version 420,2013-08-01 10:20:00,
2013-08-01 06:30:00,64.3,62.0,29.97,SW,225,0.0,0.0,92,0.00,,,0.00,WSDL version 420,2013-08-01 10:30:00,
2013-08-01 06:35:00,64.2,61.9,29.97,SW,225,0.0,0.0,92,0.00,,,0.00,WSDL version 420,2013-08-01 10:35:00,
2013-08-01 06:41:00,64.3,62.0,29.97,SW,225,0.0,0.0,92,0.00,,,0.00,WSDL version 420,2013-08-01 10:41:00,
2013-08-01 06:53:00,64.6,62.3,29.97,SW,225,0.0,0.0,92,0.00,,,0.00,WSDL version 420,2013-08-01 10:53:00,
2013-08-01 06:58:00,64.5,62.2,29.97,SW,225,0.0,0.0,92,0.00,,,0.00,WSDL version 420,2013-08-01 10:58:00,
2013-08-01 07:04:00,64.8,62.5,29.97,SW,225,0.0,0.0,92,0.00,,,0.00,WSDL version 420,2013-08-01 11:04:00,
2013-08-01 07:10:00,65.0,62.7,29.97,SW,225,0.0,0.0,92,0.00,,,0.00,WSDL version 420,2013-08-01 11:10:00,
2013-08-01 07:17:00,65.0,62.7,29.97,SW,225,0.0,0.0,92,0.00,,,0.00,WSDL version 420,2013-08-01 11:17:00,
2013-08-01 07:25:00,65.4,63.1,29.97,SW,225,0.0,0.0,92,0.00,,,0.00,WSDL version 420,2013-08-01 11:25:00,
2013-08-01 07:30:00,65.5,63.2,29.97,SW,225,0.0,0.0,92,0.00,,,0.00,WSDL version 420,2013-08-01 11:30:00,
2013-08-01 07:35:00,65.8,63.5,29.97,North,-999,-999.0,-999.0,92,0.00,,,0.00,WSDL version 420,2013-08-01 11:35:00,
2013-08-01 07:41:00,66.1,63.8,29.97,North,-999,-999.0,-999.0,92,0.00,,,0.00,WSDL version 420,2013-08-01 11:41:00,
2013-08-01 07:48:00,66.4,63.9,29.97,North,-999,-999.0,-999.0,91,0.00,,,0.00,WSDL version 420,2013-08-01 11:48:00,
2013-08-01 08:01:00,66.7,64.2,29.97,SSW,203,0.0,0.0,92,0.00,,,0.00,WSDL version 420,2013-08-01 12:01:00,
2013-08-01 08:07:00,66.6,64.0,29.97,SW,225,0.0,0.0,92,0.00,,,0.00,WSDL version 420,2013-08-01 12:07:00,
2013-08-01 08:15:00,66.5,63.8,29.97,West,261,0.0,0.0,91,0.00,,,0.00,WSDL version 420,2013-08-01 12:15:00,
2013-08-01 08:27:00,67.0,64.6,29.97,NE,45,0.0,0.0,92,0.00,,,0.00,WSDL version 420,2013-08-01 12:27:00,
2013-08-01 08:35:00,67.3,65.0,29.97,NNE,23,0.5,1.6,92,0.00,,,0.00,WSDL version 420,2013-08-01 12:35:00,
2013-08-01 08:48:00,67.5,64.8,29.97,WSW,248,0.0,0.0,91,0.00,,,0.00,WSDL version 420,2013-08-01 12:48:00,
2013-08-01 08:54:00,67.9,65.2,29.94,NE,45,1.1,1.1,91,0.00,,,0.00,WSDL version 420,2013-08-01 12:54:00,
2013-08-01 09:02:00,68.8,65.8,29.94,SSW,203,1.8,2.7,90,0.00,,,0.00,WSDL version 420,2013-08-01 13:02:00,
2013-08-01 09:10:00,69.7,66.3,29.94,SSE,163,2.1,4.7,89,0.00,,,0.00,WSDL version 420,2013-08-01 13:10:00,
2013-08-01 09:17:00,69.8,66.0,29.94,SSW,203,0.9,4.7,88,0.00,,,0.00,WSDL version 420,2013-08-01 13:17:00,
2013-08-01 09:23:00,70.1,66.3,29.94,SE,135,1.6,3.8,88,0.00,,,0.00,WSDL version 420,2013-08-01 13:23:00,
2013-08-01 09:28:00,70.7,66.5,29.94,SE,135,2.5,4.9,87,0.00,,,0.00,WSDL version 420,2013-08-01 13:28:00,
2013-08-01 09:38:00,71.6,66.8,29.94,ENE,68,5.8,5.8,84,0.00,,,0.00,WSDL version 420,2013-08-01 13:38:00,
2013-08-01 09:46:00,71.8,66.8,29.94,ESE,120,0.4,5.8,83,0.00,,,0.00,WSDL version 420,2013-08-01 13:46:00,
2013-08-01 09:54:00,71.9,65.6,29.94,North,11,2.1,4.3,80,0.00,,,0.00,WSDL version 420,2013-08-01 13:54:00,
2013-08-01 10:03:00,72.1,66.0,29.94,SSE,158,2.7,4.3,81,0.00,,,0.00,WSDL version 420,2013-08-01 14:03:00,
2013-08-01 10:08:00,72.1,66.0,29.94,SW,225,0.0,2.7,81,0.00,,,0.00,WSDL version 420,2013-08-01 14:08:00,
2013-08-01 10:17:00,72.9,66.4,29.94,East,90,3.6,3.6,79,0.00,,,0.00,WSDL version 420,2013-08-01 14:17:00,
2013-08-01 10:25:00,72.9,65.9,29.94,SE,135,0.0,3.6,79,0.00,,,0.00,WSDL version 420,2013-08-01 14:25:00,
2013-08-01 10:30:00,72.9,65.4,29.94,East,83,1.0,1.6,78,0.00,,,0.00,WSDL version 420,2013-08-01 14:30:00,
2013-08-01 10:37:00,73.0,65.5,29.94,NNW,338,1.5,1.6,77,0.00,,,0.00,WSDL version 420,2013-08-01 14:37:00,
2013-08-01 10:44:00,72.6,64.2,29.94,South,180,0.0,1.6,75,0.00,,,0.00,WSDL version 420,2013-08-01 14:44:00,
2013-08-01 10:50:00,71.4,63.5,29.94,South,173,2.9,3.6,76,0.00,,,0.00,WSDL version 420,2013-08-01 14:50:00,
2013-08-01 10:56:00,71.6,63.5,29.94,South,180,2.0,3.6,76,0.00,,,0.00,WSDL version 420,2013-08-01 14:56:00,
2013-08-01 11:02:00,71.6,63.4,29.94,South,180,2.0,2.0,75,0.00,,,0.00,WSDL version 420,2013-08-01 15:02:00,
2013-08-01 11:07:00,71.3,63.5,29.91,NNE,23,4.7,4.7,77,0.00,,,0.00,WSDL version 420,2013-08-01 15:07:00,
2013-08-01 11:13:00,71.4,63.8,29.91,NNW,338,2.5,4.7,77,0.00,,,0.00,WSDL version 420,2013-08-01 15:13:00,
2013-08-01 11:20:00,71.4,64.5,29.91,NE,45,1.1,2.5,79,0.00,,,0.00,WSDL version 420,2013-08-01 15:20:00,
2013-08-01 11:28:00,70.6,63.6,29.91,SSW,203,0.6,1.1,79,0.00,,,0.00,WSDL version 420,2013-08-01 15:28:00,
2013-08-01 11:33:00,69.8,63.4,29.94,East,90,1.3,1.3,82,0.00,,,0.00,WSDL version 420,2013-08-01 15:33:00,
2013-08-01 11:39:00,69.5,64.0,29.94,SE,124,2.0,3.4,82,-99.99,,,-99.99,WSDL version 420,2013-08-01 15:39:00,
2013-08-01 11:50:00,69.3,63.6,29.91,SE,135,2.5,6.0,82,0.00,,,0.00,WSDL version 420,2013-08-01 15:50:00,
2013-08-01 11:59:00,68.9,64.0,29.91,East,84,1.0,3.8,86,0.00,,,0.00,WSDL version 420,2013-08-01 15:59:00,
2013-08-01 12:05:00,68.4,63.9,29.91,SE,135,0.0,3.8,87,0.00,,,0.00,WSDL version 420,2013-08-01 16:05:00,
2013-08-01 12:10:00,67.9,64.2,29.91,SE,135,2.0,2.0,89,0.04,,,0.04,WSDL version 420,2013-08-01 16:10:00,
2013-08-01 12:24:00,66.9,64.2,29.94,NW,321,1.9,5.6,91,0.04,,,0.04,WSDL version 420,2013-08-01 16:24:00,
2013-08-01 12:29:00,66.9,64.2,29.94,SE,128,0.8,2.7,91,0.04,,,0.04,WSDL version 420,2013-08-01 16:29:00,
2013-08-01 12:39:00,67.2,64.5,29.91,SE,135,1.3,1.3,91,0.04,,,0.04,WSDL version 420,2013-08-01 16:39:00,
2013-08-01 12:48:00,67.4,65.3,29.91,East,90,2.9,2.9,93,0.04,,,0.04,WSDL version 420,2013-08-01 16:48:00,
2013-08-01 12:54:00,67.3,65.1,29.91,SW,225,1.1,2.9,92,0.04,,,0.04,WSDL version 420,2013-08-01 16:54:00,
2013-08-01 13:00:00,66.9,64.6,29.91,SSW,203,0.6,1.1,92,0.04,,,0.04,WSDL version 420,2013-08-01 17:00:00,
2013-08-01 13:07:00,66.7,64.3,29.91,South,180,0.0,1.1,92,0.05,,,0.09,WSDL version 420,2013-08-01 17:07:00,
2013-08-01 13:20:00,66.6,64.6,29.91,North,-999,-999.0,-999.0,93,0.05,,,0.09,WSDL version 420,2013-08-01 17:20:00,
2013-08-01 13:26:00,66.6,64.9,29.91,SW,225,2.0,2.0,94,0.05,,,0.09,WSDL version 420,2013-08-01 17:26:00,
2013-08-01 13:33:00,66.5,65.0,29.91,SSW,203,2.3,2.5,96,0.05,,,0.09,WSDL version 420,2013-08-01 17:33:00,
2013-08-01 13:42:00,66.4,65.1,29.91,SE,135,2.1,3.1,96,0.05,,,0.09,WSDL version 420,2013-08-01 17:42:00,
2013-08-01 13:47:00,66.2,64.9,29.91,SE,135,0.0,3.1,96,0.05,,,0.09,WSDL version 420,2013-08-01 17:47:00,
2013-08-01 13:54:00,66.1,64.8,29.91,NNE,23,0.0,3.1,96,0.05,,,0.09,WSDL version 420,2013-08-01 17:54:00,
2013-08-01 14:03:00,65.7,64.6,29.91,South,191,1.1,1.3,97,0.08,,,0.12,WSDL version 420,2013-08-01 18:03:00,
2013-08-01 14:08:00,-999.0,-99.9,29.91,North,-999,-999.0,-999.0,-999,0.03,,,0.12,WSDL version 420,2013-08-01 18:08:00,
2013-08-01 14:18:00,64.5,63.6,29.91,NE,45,5.6,9.4,97,0.08,,,0.17,WSDL version 420,2013-08-01 18:18:00,
2013-08-01 14:24:00,64.3,63.6,29.91,SSE,158,0.0,5.6,99,0.12,,,0.21,WSDL version 420,2013-08-01 18:24:00,
2013-08-01 14:30:00,64.4,63.8,29.91,SSE,158,0.0,2.0,98,0.16,,,0.25,WSDL version 420,2013-08-01 18:30:00,
2013-08-01 14:35:00,64.2,63.9,29.91,SSE,158,0.0,0.0,99,0.16,,,0.25,WSDL version 420,2013-08-01 18:35:00,
2013-08-01 14:40:00,64.4,64.1,29.91,North,-999,-999.0,-999.0,99,0.16,,,0.25,WSDL version 420,2013-08-01 18:40:00,
2013-08-01 14:45:00,64.5,64.1,29.91,North,-999,-999.0,-999.0,99,0.16,,,0.25,WSDL version 420,2013-08-01 18:45:00,
2013-08-01 14:52:00,64.9,64.8,29.91,WSW,248,1.6,1.6,100,0.16,,,0.25,WSDL version 420,2013-08-01 18:52:00,
2013-08-01 14:57:00,64.9,64.9,29.91,North,360,1.3,1.6,100,0.16,,,0.25,WSDL version 420,2013-08-01 18:57:00,
2013-08-01 15:10:00,65.1,65.1,29.91,North,-999,-999.0,-999.0,100,0.17,,,0.29,WSDL version 420,2013-08-01 19:10:00,
2013-08-01 15:23:00,65.1,65.1,29.91,SE,135,3.4,3.4,100,0.08,,,0.29,WSDL version 420,2013-08-01 19:23:00,
2013-08-01 15:30:00,65.2,65.2,29.91,North,-999,-999.0,-999.0,100,0.04,,,0.29,WSDL version 420,2013-08-01 19:30:00,
2013-08-01 15:38:00,65.3,65.3,29.91,North,-999,-999.0,-999.0,100,0.04,,,0.29,WSDL version 420,2013-08-01 19:38:00,
2013-08-01 15:46:00,65.5,65.5,29.91,WSW,248,2.0,2.0,100,0.04,,,0.29,WSDL version 420,2013-08-01 19:46:00,
2013-08-01 15:53:00,65.6,65.6,29.91,WSW,248,2.0,2.0,100,0.04,,,0.29,WSDL version 420,2013-08-01 19:53:00,
2013-08-01 15:58:00,65.4,65.4,29.91,North,-999,-999.0,-999.0,100,0.04,,,0.29,WSDL version 420,2013-08-01 19:58:00,
2013-08-01 16:04:00,65.7,65.7,29.88,North,-999,-999.0,-999.0,100,0.00,,,0.29,WSDL version 420,2013-08-01 20:04:00,
2013-08-01 16:10:00,65.7,65.7,29.88,North,-999,-999.0,-999.0,100,0.00,,,0.29,WSDL version 420,2013-08-01 20:10:00,
2013-08-01 16:17:00,65.7,65.7,29.88,North,-999,-999.0,-999.0,100,0.00,,,0.29,WSDL version 420,2013-08-01 20:17:00,
2013-08-01 16:23:00,65.9,65.9,29.88,North,-999,-999.0,-999.0,100,0.00,,,0.29,WSDL version 420,2013-08-01 20:23:00,
2013-08-01 16:28:00,65.7,65.7,29.88,North,-999,-999.0,-999.0,100,0.00,,,0.29,WSDL version 420,2013-08-01 20:28:00,
2013-08-01 16:34:00,65.6,65.6,29.88,North,-999,-999.0,-999.0,100,0.00,,,0.29,WSDL version 420,2013-08-01 20:34:00,
2013-08-01 16:40:00,65.5,65.5,29.88,North,-999,-999.0,-999.0,100,0.00,,,0.29,WSDL version 420,2013-08-01 20:40:00,
2013-08-01 16:47:00,65.5,65.5,29.88,North,-999,-999.0,-999.0,100,-99.99,,,-99.99,WSDL version 420,2013-08-01 20:47:00,
2013-08-01 16:51:00,65.5,65.5,29.88,North,-999,-999.0,-999.0,100,0.00,,,0.29,WSDL version 420,2013-08-01 20:51:00,
2013-08-01 16:58:00,65.4,65.4,29.88,North,-999,-999.0,-999.0,100,0.00,,,0.29,WSDL version 420,2013-08-01 20:58:00,
2013-08-01 17:04:00,65.3,65.3,29.88,North,-999,-999.0,-999.0,100,0.00,,,0.29,WSDL version 420,2013-08-01 21:04:00,
2013-08-01 17:11:00,65.2,65.2,29.88,North,-999,-999.0,-999.0,100,0.00,,,0.29,WSDL version 420,2013-08-01 21:11:00,
2013-08-01 17:17:00,65.1,65.1,29.88,North,-999,-999.0,-999.0,100,0.00,,,0.29,WSDL version 420,2013-08-01 21:17:00,
2013-08-01 17:22:00,65.1,65.1,29.85,SSE,158,1.3,1.3,100,0.00,,,0.29,WSDL version 420,2013-08-01 21:22:00,
2013-08-01 17:29:00,65.1,65.1,29.85,SSE,158,1.3,1.3,100,0.00,,,0.29,WSDL version 420,2013-08-01 21:29:00,
2013-08-01 17:36:00,65.1,65.1,29.85,North,0,0.0,1.3,100,0.00,,,0.29,WSDL version 420,2013-08-01 21:36:00,
2013-08-01 17:42:00,65.0,65.0,29.85,North,-999,-999.0,-999.0,100,0.00,,,0.29,WSDL version 420,2013-08-01 21:42:00,
2013-08-01 17:48:00,64.9,64.9,29.85,North,-999,-999.0,-999.0,100,0.00,,,0.29,WSDL version 420,2013-08-01 21:48:00,
2013-08-01 17:53:00,64.8,64.8,29.88,North,-999,-999.0,-999.0,100,0.00,,,0.29,WSDL version 420,2013-08-01 21:53:00,
2013-08-01 18:01:00,64.9,64.8,29.88,North,-999,-999.0,-999.0,100,0.00,,,0.29,WSDL version 420,2013-08-01 22:01:00,
2013-08-01 18:07:00,64.9,64.9,29.88,North,-999,-999.0,-999.0,100,0.00,,,0.29,WSDL version 420,2013-08-01 22:07:00,
2013-08-01 18:14:00,64.9,64.9,29.88,North,-999,-999.0,-999.0,100,0.00,,,0.29,WSDL version 420,2013-08-01 22:14:00,
2013-08-01 18:20:00,64.8,64.8,29.85,North,-999,-999.0,-999.0,100,0.00,,,0.29,WSDL version 420,2013-08-01 22:20:00,
2013-08-01 18:28:00,64.8,64.8,29.85,North,-999,-999.0,-999.0,100,0.00,,,0.29,WSDL version 420,2013-08-01 22:28:00,
2013-08-01 18:34:00,64.8,64.8,29.85,North,-999,-999.0,-999.0,100,0.00,,,0.29,WSDL version 420,2013-08-01 22:34:00,
2013-08-01 18:41:00,64.6,64.6,29.85,North,-999,-999.0,-999.0,100,0.00,,,0.29,WSDL version 420,2013-08-01 22:41:00,
2013-08-01 18:47:00,64.6,64.6,29.85,North,-999,-999.0,-999.0,100,0.00,,,0.29,WSDL version 420,2013-08-01 22:47:00,
2013-08-01 18:57:00,64.4,64.4,29.85,North,-999,-999.0,-999.0,100,0.00,,,0.29,WSDL version 420,2013-08-01 22:57:00,
2013-08-01 19:07:00,64.4,64.4,29.85,North,-999,-999.0,-999.0,100,0.00,,,0.29,WSDL version 420,2013-08-01 23:07:00,
2013-08-01 19:13:00,64.5,64.5,29.85,North,-999,-999.0,-999.0,100,0.00,,,0.29,WSDL version 420,2013-08-01 23:13:00,
2013-08-01 19:19:00,64.4,64.4,29.88,North,-999,-999.0,-999.0,100,0.00,,,0.29,WSDL version 420,2013-08-01 23:19:00,
2013-08-01 19:26:00,64.6,64.6,29.88,North,-999,-999.0,-999.0,100,0.00,,,0.29,WSDL version 420,2013-08-01 23:26:00,
2013-08-01 19:32:00,64.6,64.6,29.88,North,-999,-999.0,-999.0,100,0.00,,,0.29,WSDL version 420,2013-08-01 23:32:00,
2013-08-01 19:39:00,64.6,64.6,29.85,North,-999,-999.0,-999.0,100,0.00,,,0.29,WSDL version 420,2013-08-01 23:39:00,
2013-08-01 19:44:00,64.8,64.8,29.85,North,-999,-999.0,-999.0,100,0.00,,,0.29,WSDL version 420,2013-08-01 23:44:00,
2013-08-01 19:50:00,64.8,64.8,29.88,North,-999,-999.0,-999.0,100,0.00,,,0.29,WSDL version 420,2013-08-01 23:50:00,
2013-08-01 19:56:00,64.8,64.8,29.88,North,-999,-999.0,-999.0,100,0.00,,,0.29,WSDL version 420,2013-08-01 23:56:00,
2013-08-01 20:03:00,64.8,64.8,29.88,North,-999,-999.0,-999.0,100,0.00,,,0.29,WSDL version 420,2013-08-02 00:03:00,
2013-08-01 20:08:00,64.8,64.8,29.88,North,-999,-999.0,-999.0,100,0.00,,,0.29,WSDL version 420,2013-08-02 00:08:00,
2013-08-01 20:14:00,64.8,64.8,29.88,North,-999,-999.0,-999.0,100,0.00,,,0.29,WSDL version 420,2013-08-02 00:14:00,
2013-08-01 20:20:00,64.8,64.8,29.88,North,-999,-999.0,-999.0,100,0.00,,,0.29,WSDL version 420,2013-08-02 00:20:00,
2013-08-01 20:25:00,64.8,64.8,29.88,South,180,1.6,1.6,100,0.00,,,0.29,WSDL version 420,2013-08-02 00:25:00,
2013-08-01 20:30:00,64.9,64.8,29.88,South,180,1.6,1.6,100,0.00,,,0.29,WSDL version 420,2013-08-02 00:30:00,
2013-08-01 20:36:00,64.9,64.9,29.88,South,180,1.6,1.6,100,0.00,,,0.29,WSDL version 420,2013-08-02 00:36:00,
2013-08-01 20:45:00,64.9,64.9,29.88,North,-999,-999.0,-999.0,100,0.00,,,0.29,WSDL version 420,2013-08-02 00:45:00,
2013-08-01 20:50:00,64.9,64.9,29.88,SSE,158,2.5,2.5,100,0.00,,,0.29,WSDL version 420,2013-08-02 00:50:00,
2013-08-01 20:56:00,64.9,64.9,29.88,WSW,248,0.0,2.5,100,0.00,,,0.29,WSDL version 420,2013-08-02 00:56:00,
2013-08-01 21:01:00,64.9,64.9,29.88,WSW,248,0.0,2.5,100,0.00,,,0.29,WSDL version 420,2013-08-02 01:01:00,
2013-08-01 21:08:00,65.1,65.1,29.88,WSW,248,0.0,0.0,100,0.00,,,0.29,WSDL version 420,2013-08-02 01:08:00,
2013-08-01 21:14:00,65.2,65.2,29.88,North,-999,-999.0,-999.0,100,0.00,,,0.29,WSDL version 420,2013-08-02 01:14:00,
2013-08-01 21:21:00,65.3,65.3,29.88,North,-999,-999.0,-999.0,100,0.00,,,0.29,WSDL version 420,2013-08-02 01:21:00,
2013-08-01 21:30:00,65.4,65.4,29.88,North,-999,-999.0,-999.0,100,0.00,,,0.29,WSDL version 420,2013-08-02 01:30:00,
2013-08-01 21:38:00,65.5,65.5,29.85,North,-999,-999.0,-999.0,100,0.00,,,0.29,WSDL version 420,2013-08-02 01:38:00,
2013-08-01 21:48:00,65.5,65.5,29.85,North,-999,-999.0,-999.0,100,0.00,,,0.29,WSDL version 420,2013-08-02 01:48:00,
2013-08-01 21:54:00,65.5,65.5,29.85,North,-999,-999.0,-999.0,100,0.00,,,0.29,WSDL version 420,2013-08-02 01:54:00,
2013-08-01 22:00:00,65.5,65.5,29.85,North,-999,-999.0,-999.0,100,0.00,,,0.29,WSDL version 420,2013-08-02 02:00:00,
2013-08-01 22:08:00,65.5,65.5,29.85,North,-999,-999.0,-999.0,100,0.00,,,0.29,WSDL version 420,2013-08-02 02:08:00,
2013-08-01 22:14:00,65.6,65.6,29.85,North,-999,-999.0,-999.0,100,0.00,,,0.29,WSDL version 420,2013-08-02 02:14:00,
2013-08-01 22:22:00,65.7,65.7,29.85,North,-999,-999.0,-999.0,100,0.00,,,0.29,WSDL version 420,2013-08-02 02:22:00,
2013-08-01 22:27:00,65.7,65.7,29.85,North,-999,-999.0,-999.0,100,0.00,,,0.29,WSDL version 420,2013-08-02 02:27:00,
2013-08-01 22:33:00,65.7,65.7,29.85,North,-999,-999.0,-999.0,100,0.00,,,0.29,WSDL version 420,2013-08-02 02:33:00,
2013-08-01 22:42:00,65.8,65.8,29.85,North,-999,-999.0,-999.0,100,0.00,,,0.29,WSDL version 420,2013-08-02 02:42:00,
2013-08-01 22:48:00,65.7,65.7,29.85,North,-999,-999.0,-999.0,100,0.00,,,0.29,WSDL version 420,2013-08-02 02:48:00,
2013-08-01 22:55:00,65.8,65.8,29.85,North,-999,-999.0,-999.0,100,0.00,,,0.29,WSDL version 420,2013-08-02 02:55:00,
2013-08-01 23:03:00,65.8,65.8,29.83,North,-999,-999.0,-999.0,100,0.00,,,0.29,WSDL version 420,2013-08-02 03:03:00,
2013-08-01 23:12:00,65.9,65.9,29.83,North,-999,-999.0,-999.0,100,0.00,,,0.29,WSDL version 420,2013-08-02 03:12:00,
2013-08-01 23:18:00,66.0,66.0,29.83,North,-999,-999.0,-999.0,100,0.00,,,0.29,WSDL version 420,2013-08-02 03:18:00,
2013-08-01 23:24:00,65.9,65.9,29.83,North,-999,-999.0,-999.0,100,0.00,,,0.29,WSDL version 420,2013-08-02 03:24:00,
2013-08-01 23:31:00,65.8,65.8,29.83,North,-999,-999.0,-999.0,100,0.00,,,0.29,WSDL version 420,2013-08-02 03:31:00,
2013-08-01 23:37:00,66.0,66.0,29.83,North,-999,-999.0,-999.0,100,-99.99,,,-99.99,WSDL version 420,2013-08-02 03:37:00,
2013-08-01 23:45:00,65.9,65.9,29.83,North,-999,-999.0,-999.0,100,0.00,,,0.29,WSDL version 420,2013-08-02 03:45:00,
2013-08-01 23:51:00,65.9,65.9,29.83,North,-999,-999.0,-999.0,100,0.00,,,0.29,WSDL version 420,2013-08-02 03:51:00,
2013-08-01 23:59:00,66.0,66.0,29.83,North,-999,-999.0,-999.0,100,0.00,,,0.29,WSDL version 420,2013-08-02 03:59:00,